Beira Airport

Airport
ICAO code: 
FQBR
IATA Code: 
BEW
Summary
ICAO Region: 
AFI
Territory: 
Location: 
Beira,
Serving: 
Beira
Elevation: 
33 ft
Coordinates: 
Aerial View: 
19° 47' 48.563" S, 34° 54' 31.669" E
Metar
Observation
FQBR 241500Z 17018KT 9999 SCT018 BKN030 OVC070 28/26 Q1007
Station
Beira
Date/Time
2022-01-24 15:00:00
Wind direction
170°
Wind speed
18 kts
Lowest cloud amount
scattered clouds
Temperature
28°C
Dew point
26°C
Humidity
88%
QNH
1007 hPa
Weather condition
n/a

Runways

Designator Length Width Surface Rops
6/24 920 45 ASP Yes/Yes
17/35 1725 45 ASP Yes/Yes
12/30 2400 45 ASP Yes/Yes
Airport map: 
Aerial View: 

SKYbrary Partners:

Safety knowledge contributed by: